Terminal Aerodrome Forecast
Issued by NWS

Home | Current Version | Previous Version | Text Only | Print | Product List | Glossary Off
Versions: 1 2 3 4 5 6 7 8 9 10 11 12 13 14 15 16 17 18 19 20 21

000
FTUS42 KMHX 022323
TAFOAJ
TAF
KOAJ 022323Z 0300/0324 04008KT P6SM FEW050 SCT100
     FM030900 04008KT P6SM BKN050
     FM031500 05007KT P6SM SCT025 OVC035
     FM032000 09006KT P6SM OVC025
      AMD LTD TO CLD VIS AND WIND=

USA.gov is the U.S. government's official web portal to all federal, state and local government web resources and services.